Time;durP1;ratioP1;P1;durP2;ratioP2;P2;SDS_P1;SDS_P2;PMS_P1;PMS_P2;Temp;Humidity;BMP_temperature;BMP_pressure;BME280_temperature;BME280_humidity;BME280_pressure;Samples;Min_cycle;Max_cycle;Signal;HPM_P1;HPM_P2
2021/07/19 00:02:12;;;;;;;22.75;15.57;;;;;;;26.03;58.60;98565.81;5008531;28;20105;-77
2021/07/19 00:04:41;;;;;;;19.55;14.40;;;;;;;25.97;59.24;98561.97;5012848;28;20460;-70
2021/07/19 00:07:07;;;;;;;24.70;15.00;;;;;;;25.88;59.40;98566.31;5008185;28;20407;-75
2021/07/19 00:09:33;;;;;;;19.67;15.23;;;;;;;25.97;59.39;98561.97;5007806;28;20507;-73
2021/07/19 00:11:59;;;;;;;23.55;14.43;;;;;;;25.87;59.39;98567.59;5007511;28;20030;-76
2021/07/19 00:14:26;;;;;;;20.50;15.10;;;;;;;25.92;59.30;98569.06;5007318;28;20081;-70
2021/07/19 00:16:53;;;;;;;19.85;15.65;;;;;;;25.91;59.28;98571.13;5001480;28;20598;-76
2021/07/19 00:19:18;;;;;;;21.75;15.77;;;;;;;25.82;59.66;98573.09;5012728;28;20029;-70
2021/07/19 00:21:43;;;;;;;25.00;16.58;;;;;;;25.73;60.01;98571.75;5009714;28;20044;-76
2021/07/19 00:24:09;;;;;;;20.73;16.35;;;;;;;25.75;59.58;98582.75;5009623;28;20034;-76
2021/07/19 00:26:34;;;;;;;24.10;15.52;;;;;;;25.74;59.85;98581.94;5012471;28;20498;-70
2021/07/19 00:29:00;;;;;;;20.10;15.80;;;;;;;25.81;59.64;98582.97;5012335;28;20037;-76
2021/07/19 00:31:31;;;;;;;25.95;15.93;;;;;;;25.82;59.46;98579.63;5008667;28;20042;-70
2021/07/19 00:33:56;;;;;;;17.40;15.13;;;;;;;25.81;59.70;98574.38;5011093;28;20089;-70
2021/07/19 00:36:22;;;;;;;23.13;17.40;;;;;;;25.67;59.93;98572.78;5012255;28;20049;-76
2021/07/19 00:38:47;;;;;;;22.73;15.05;;;;;;;25.52;60.41;98567.53;5010373;28;20033;-70
2021/07/19 00:41:13;;;;;;;16.88;15.07;;;;;;;25.45;60.47;98567.75;5011984;28;20602;-76
2021/07/19 00:43:38;;;;;;;22.83;15.85;;;;;;;25.53;60.17;98569.16;5010157;28;20354;-70
2021/07/19 00:46:03;;;;;;;19.45;15.32;;;;;;;25.55;59.74;98563.75;5027116;28;20022;-70
2021/07/19 00:48:29;;;;;;;24.48;15.75;;;;;;;25.56;60.20;98561.72;5025349;28;20034;-70
2021/07/19 00:50:54;;;;;;;21.20;15.25;;;;;;;25.60;59.92;98563.19;5012004;28;20049;-75
2021/07/19 00:53:20;;;;;;;23.90;15.27;;;;;;;25.64;59.66;98568.78;5011209;28;20029;-76
2021/07/19 00:55:48;;;;;;;20.70;14.98;;;;;;;25.66;59.83;98569.13;5007926;28;20113;-70
2021/07/19 00:58:14;;;;;;;19.55;15.20;;;;;;;25.58;60.11;98571.44;5009534;28;20034;-76
2021/07/19 01:00:44;;;;;;;21.23;16.13;;;;;;;25.71;60.09;98562.81;5011036;28;20018;-70
2021/07/19 01:03:10;;;;;;;22.10;16.60;;;;;;;25.69;59.33;98564.53;5011047;28;20038;-76
2021/07/19 01:05:39;;;;;;;23.73;16.23;;;;;;;25.72;59.41;98555.03;5010608;28;20045;-70
2021/07/19 01:08:05;;;;;;;20.92;16.17;;;;;;;25.74;59.28;98563.97;5003682;28;20109;-70
2021/07/19 01:10:33;;;;;;;26.58;17.35;;;;;;;25.73;59.70;98565.22;5010323;28;20496;-71
2021/07/19 01:12:58;;;;;;;19.83;17.45;;;;;;;25.71;59.77;98562.03;5011171;28;20026;-76
2021/07/19 01:15:27;;;;;;;24.75;16.42;;;;;;;25.76;59.59;98564.28;5006434;28;20488;-70
2021/07/19 01:17:52;;;;;;;21.95;16.23;;;;;;;25.83;59.37;98566.94;5011348;28;20061;-71
2021/07/19 01:20:22;;;;;;;21.45;16.52;;;;;;;25.73;59.47;98568.88;5026255;28;20030;-70
2021/07/19 01:23:27;;;;;;;26.95;18.58;;;;;;;25.77;59.52;98571.63;5012003;28;20066;-73
2021/07/19 01:26:25;;;;;;;24.42;18.27;;;;;;;25.84;59.35;98577.13;5006835;28;20041;-70
2021/07/19 01:28:52;;;;;;;24.75;16.63;;;;;;;25.86;59.20;98571.72;5004904;28;20117;-76
2021/07/19 01:31:24;;;;;;;19.65;16.45;;;;;;;25.91;59.01;98571.13;5008477;28;20041;-70
2021/07/19 01:33:57;;;;;;;25.40;19.02;;;;;;;25.65;59.79;98576.13;4999847;28;20057;-70
2021/07/19 01:36:27;;;;;;;21.52;16.85;;;;;;;25.71;59.97;98577.13;5007236;28;20042;-76
2021/07/19 01:38:53;;;;;;;24.33;17.73;;;;;;;25.67;59.93;98582.19;5010714;28;20026;-70
2021/07/19 01:41:20;;;;;;;18.80;16.50;;;;;;;25.44;60.90;98577.59;5010972;28;20400;-76
2021/07/19 01:43:49;;;;;;;20.52;17.13;;;;;;;25.57;60.55;98581.25;5009207;28;20025;-70
2021/07/19 01:46:16;;;;;;;25.58;17.58;;;;;;;25.56;60.41;98582.53;5010562;28;20092;-76
2021/07/19 01:48:42;;;;;;;25.55;18.58;;;;;;;25.51;60.03;98572.44;5008313;28;20026;-76
2021/07/19 01:51:10;;;;;;;22.30;17.02;;;;;;;25.44;60.72;98577.59;5009445;28;20125;-70
2021/07/19 01:53:36;;;;;;;19.45;16.83;;;;;;;25.48;60.48;98586.88;5010190;28;20029;-70
2021/07/19 01:56:03;;;;;;;21.17;16.98;;;;;;;25.10;61.53;98579.88;5009451;28;20496;-70
2021/07/19 01:58:29;;;;;;;25.33;17.38;;;;;;;24.93;62.11;98584.91;5010171;28;20088;-70
2021/07/19 02:00:55;;;;;;;23.95;16.50;;;;;;;25.15;61.44;98579.31;5007076;28;20066;-70
2021/07/19 02:03:22;;;;;;;22.38;16.83;;;;;;;25.28;61.34;98587.91;5010872;28;20125;-70
2021/07/19 02:05:50;;;;;;;22.48;16.70;;;;;;;25.31;61.28;98586.19;5010685;28;20018;-76
2021/07/19 02:08:17;;;;;;;19.75;15.70;;;;;;;25.41;60.89;98587.91;5010276;28;20025;-70
2021/07/19 02:10:47;;;;;;;21.77;16.92;;;;;;;25.51;60.47;98583.91;5008106;28;20030;-70
2021/07/19 02:13:14;;;;;;;23.02;16.08;;;;;;;25.51;59.95;98589.63;5010706;28;20033;-70
2021/07/19 02:15:41;;;;;;;20.38;16.52;;;;;;;25.36;60.89;98589.28;5008249;28;20396;-70
2021/07/19 02:18:08;;;;;;;23.95;16.95;;;;;;;25.37;60.62;98592.94;5010253;28;20050;-76
2021/07/19 02:20:34;;;;;;;23.75;16.10;;;;;;;25.33;60.72;98590.19;5008420;28;20033;-76
2021/07/19 02:23:03;;;;;;;19.73;16.40;;;;;;;25.38;60.61;98603.13;5009409;28;20420;-76
2021/07/19 02:25:29;;;;;;;25.35;18.17;;;;;;;25.33;60.64;98606.56;5009086;28;20037;-76
2021/07/19 02:27:55;;;;;;;27.55;16.65;;;;;;;25.35;60.58;98609.75;5006994;28;20404;-70
2021/07/19 02:30:22;;;;;;;25.15;16.60;;;;;;;25.15;60.98;98601.41;5003329;28;20036;-75
2021/07/19 02:32:55;;;;;;;28.42;17.73;;;;;;;25.22;61.20;98598.34;5008125;28;20121;-71
2021/07/19 02:35:23;;;;;;;19.75;17.60;;;;;;;24.97;61.16;98602.75;5008474;28;20045;-76
2021/07/19 02:37:52;;;;;;;22.13;18.65;;;;;;;25.00;61.29;98609.63;5003739;28;20100;-76
2021/07/19 02:40:21;;;;;;;25.13;18.38;;;;;;;25.03;61.18;98612.38;5010428;28;20033;-76
2021/07/19 02:42:50;;;;;;;27.13;18.53;;;;;;;24.87;61.88;98603.91;5010299;28;20030;-70
2021/07/19 02:45:18;;;;;;;30.10;18.10;;;;;;;24.90;61.36;98615.19;5009281;28;20037;-76
2021/07/19 02:47:44;;;;;;;23.67;18.55;;;;;;;24.87;61.10;98607.53;5008344;28;20057;-70
2021/07/19 02:50:12;;;;;;;33.88;20.35;;;;;;;24.62;62.09;98616.84;5010144;28;20029;-70
2021/07/19 02:52:40;;;;;;;23.65;18.85;;;;;;;24.73;61.36;98617.31;5009814;28;20037;-70
2021/07/19 02:55:06;;;;;;;31.45;19.05;;;;;;;24.65;61.53;98613.06;5007440;28;20022;-76
2021/07/19 02:57:35;;;;;;;23.33;19.35;;;;;;;24.62;61.85;98617.63;4998449;28;20049;-70
2021/07/19 03:00:01;;;;;;;27.60;19.60;;;;;;;24.55;62.07;98620.69;5010533;28;20033;-70
2021/07/19 03:02:27;;;;;;;28.98;19.77;;;;;;;24.61;62.00;98618.06;5010076;28;20403;-70
2021/07/19 03:04:56;;;;;;;26.35;18.88;;;;;;;24.62;61.37;98619.69;5022539;28;20026;-70
2021/07/19 03:07:22;;;;;;;32.05;20.42;;;;;;;24.64;61.39;98623.69;5010070;28;20053;-70
2021/07/19 03:09:55;;;;;;;38.45;19.70;;;;;;;24.52;61.81;98621.59;5010290;28;20029;-76
2021/07/19 03:12:23;;;;;;;54.45;24.67;;;;;;;23.94;63.98;98618.22;5008001;28;20049;-70
2021/07/19 03:14:49;;;;;;;30.45;20.73;;;;;;;23.78;65.07;98623.94;5008469;28;20499;-70
2021/07/19 03:17:19;;;;;;;39.42;22.35;;;;;;;23.83;64.41;98627.06;5009933;28;20050;-76
2021/07/19 03:19:51;;;;;;;40.90;20.50;;;;;;;24.10;63.79;98625.16;5008779;28;20029;-76
2021/07/19 03:22:22;;;;;;;22.73;20.08;;;;;;;24.21;63.35;98625.69;5006436;28;20053;-70
2021/07/19 03:24:50;;;;;;;29.10;20.17;;;;;;;24.34;63.32;98622.91;5006038;28;20069;-70
2021/07/19 03:27:16;;;;;;;33.90;20.30;;;;;;;24.42;62.86;98625.53;5007977;28;20502;-70
2021/07/19 03:29:43;;;;;;;34.58;21.77;;;;;;;24.56;62.26;98632.94;5010382;28;20018;-76
2021/07/19 03:32:09;;;;;;;35.15;21.27;;;;;;;24.84;61.35;98621.94;5009849;28;20060;-75
2021/07/19 03:34:36;;;;;;;33.45;20.15;;;;;;;24.79;61.72;98637.59;5010013;28;20080;-74
2021/07/19 03:37:02;;;;;;;611.13;75.47;;;;;;;24.72;61.74;98643.50;5012814;28;20567;-74
2021/07/19 03:39:28;;;;;;;299.85;42.58;;;;;;;24.74;62.13;98647.53;5009855;28;20037;-74
2021/07/19 03:41:54;;;;;;;1999.90;381.25;;;;;;;24.87;61.84;98652.50;5009274;28;20037;-74
2021/07/19 03:44:21;;;;;;;582.78;66.43;;;;;;;25.07;61.13;98650.25;5010720;28;20029;-73
2021/07/19 03:46:47;;;;;;;109.45;25.38;;;;;;;25.03;60.85;98651.59;5008503;28;20204;-74
2021/07/19 03:49:14;;;;;;;36.75;20.58;;;;;;;25.11;60.71;98647.28;5012641;28;20029;-80
2021/07/19 03:51:43;;;;;;;46.53;21.55;;;;;;;24.84;61.84;98650.53;4998713;28;20490;-74
2021/07/19 03:54:09;;;;;;;33.17;23.02;;;;;;;24.70;61.87;98651.72;5013372;28;20034;-74
2021/07/19 03:56:36;;;;;;;38.72;22.88;;;;;;;24.70;62.12;98655.38;5012666;28;20045;-78
2021/07/19 03:59:02;;;;;;;27.58;23.70;;;;;;;24.62;62.58;98654.00;5010092;28;20573;-74
2021/07/19 04:01:28;;;;;;;31.63;22.42;;;;;;;24.53;62.63;98649.72;5011648;28;20046;-73
2021/07/19 04:04:04;;;;;;;32.55;22.30;;;;;;;24.44;62.66;98658.13;5011416;28;20058;-77
2021/07/19 04:06:30;;;;;;;27.90;22.63;;;;;;;24.53;62.32;98666.88;5010179;28;20073;-79
2021/07/19 04:08:56;;;;;;;35.40;23.88;;;;;;;24.49;62.35;98660.44;5007223;28;20107;-78
2021/07/19 04:11:23;;;;;;;34.88;22.38;;;;;;;24.58;61.90;98661.84;5012249;28;20065;-77
2021/07/19 04:13:49;;;;;;;42.67;22.98;;;;;;;24.70;61.68;98663.97;5010654;28;20032;-78
2021/07/19 04:16:19;;;;;;;32.42;24.20;;;;;;;24.66;62.06;98668.97;5010768;28;20037;-77
2021/07/19 04:18:45;;;;;;;31.23;24.05;;;;;;;24.67;62.28;98676.31;5009539;28;20121;-75
2021/07/19 04:21:11;;;;;;;36.00;25.25;;;;;;;24.68;62.02;98678.72;5012005;28;20034;-81
2021/07/19 04:23:37;;;;;;;35.90;23.77;;;;;;;24.67;62.56;98670.59;5012509;28;20471;-79
2021/07/19 04:26:03;;;;;;;27.20;23.38;;;;;;;24.68;62.40;98680.75;5008974;28;23166;-80
2021/07/19 04:28:28;;;;;;;26.58;23.48;;;;;;;24.82;62.26;98671.03;5025513;28;20036;-79
2021/07/19 04:30:57;;;;;;;37.92;24.10;;;;;;;24.77;62.41;98680.13;5010165;28;20080;-78
2021/07/19 04:33:22;;;;;;;31.13;24.67;;;;;;;25.01;61.62;98672.09;5001494;28;20034;-71
2021/07/19 04:35:49;;;;;;;27.63;23.13;;;;;;;24.91;62.31;98668.28;5007289;28;20066;-74
2021/07/19 04:38:16;;;;;;;35.45;25.17;;;;;;;24.74;62.53;98676.13;5012240;28;20487;-70
2021/07/19 04:40:45;;;;;;;35.13;24.88;;;;;;;24.88;62.26;98674.13;5009375;28;20034;-75
2021/07/19 04:43:11;;;;;;;28.40;24.13;;;;;;;24.98;62.01;98681.59;5009755;28;20038;-70
2021/07/19 04:45:36;;;;;;;27.95;23.35;;;;;;;25.12;61.75;98683.22;5004394;28;20091;-70
2021/07/19 04:48:02;;;;;;;31.42;25.77;;;;;;;25.19;61.47;98685.06;5012641;28;20307;-70
2021/07/19 04:50:28;;;;;;;50.42;24.55;;;;;;;24.89;62.44;98692.88;5011627;28;20030;-71
2021/07/19 04:52:53;;;;;;;30.63;24.95;;;;;;;24.90;63.47;98685.91;5012560;28;20487;-72
2021/07/19 04:55:21;;;;;;;30.10;25.15;;;;;;;25.13;62.44;98695.47;4999183;28;20037;-72
2021/07/19 04:57:50;;;;;;;30.77;25.20;;;;;;;25.01;62.55;98694.97;5027448;28;20499;-74
2021/07/19 05:00:16;;;;;;;31.80;25.60;;;;;;;24.97;62.82;98702.06;5011020;28;20045;-74
2021/07/19 05:02:44;;;;;;;37.58;25.35;;;;;;;25.08;62.22;98700.47;5010063;28;20041;-75
2021/07/19 05:05:17;;;;;;;31.38;25.40;;;;;;;25.07;62.37;98698.88;5003484;28;20358;-71
2021/07/19 05:07:45;;;;;;;28.95;23.27;;;;;;;25.21;62.59;98699.69;5009021;28;20026;-73
2021/07/19 05:10:16;;;;;;;35.08;24.67;;;;;;;25.27;62.14;98705.66;5009437;28;20125;-73
2021/07/19 05:12:44;;;;;;;26.63;23.83;;;;;;;25.19;62.17;98700.16;5004112;28;20072;-75
2021/07/19 05:15:11;;;;;;;33.50;24.33;;;;;;;25.22;62.11;98704.19;5011560;28;20036;-73
2021/07/19 05:17:39;;;;;;;30.02;23.95;;;;;;;25.47;61.46;98691.97;5011298;28;20054;-75
2021/07/19 05:20:11;;;;;;;28.67;23.73;;;;;;;25.43;61.50;98693.34;5009844;28;20423;-70
2021/07/19 05:22:36;;;;;;;25.35;22.63;;;;;;;25.43;62.16;98708.47;5002472;28;20065;-69
2021/07/19 05:25:02;;;;;;;29.40;23.75;;;;;;;25.48;62.11;98702.16;5010694;28;20428;-75
2021/07/19 05:27:28;;;;;;;33.75;23.35;;;;;;;25.60;61.15;98705.50;5009832;28;20088;-72
2021/07/19 05:29:53;;;;;;;34.60;22.77;;;;;;;25.73;61.44;98709.19;5007979;28;20033;-73
2021/07/19 05:32:19;;;;;;;40.95;24.77;;;;;;;25.82;60.88;98710.56;4999941;28;20092;-71
2021/07/19 05:34:44;;;;;;;35.95;22.33;;;;;;;25.73;61.50;98720.63;5011728;28;20164;-72
2021/07/19 05:37:10;;;;;;;26.25;23.55;;;;;;;25.76;61.06;98710.34;5009311;28;20107;-72
2021/07/19 05:39:35;;;;;;;26.23;23.35;;;;;;;25.72;60.77;98713.31;5005471;28;20030;-72
2021/07/19 05:42:01;;;;;;;26.42;22.83;;;;;;;25.65;61.38;98714.34;5009463;28;20026;-76
2021/07/19 05:44:26;;;;;;;27.25;23.95;;;;;;;25.72;61.22;98712.50;5010760;28;20022;-73
2021/07/19 05:46:52;;;;;;;38.40;24.27;;;;;;;25.85;61.04;98716.19;5009921;28;20066;-76
2021/07/19 05:49:17;;;;;;;26.73;23.90;;;;;;;25.85;61.18;98715.38;4999639;28;20056;-76
2021/07/19 05:51:43;;;;;;;32.25;24.60;;;;;;;25.87;61.14;98724.28;5011037;28;20041;-72
2021/07/19 05:54:09;;;;;;;31.13;24.17;;;;;;;25.79;60.56;98709.41;5010469;28;20034;-76
2021/07/19 05:56:35;;;;;;;29.40;23.63;;;;;;;25.88;61.65;98715.25;5025602;28;20115;-76
2021/07/19 05:59:04;;;;;;;34.92;25.08;;;;;;;26.03;61.13;98715.59;5008531;28;20022;-72
2021/07/19 06:01:29;;;;;;;30.55;22.02;;;;;;;26.21;59.54;98715.03;5011074;28;20030;-71
2021/07/19 06:03:55;;;;;;;27.15;22.52;;;;;;;26.23;59.76;98717.41;5010745;28;20404;-77
2021/07/19 06:06:20;;;;;;;44.22;23.48;;;;;;;26.24;59.62;98706.75;5006803;28;20034;-71
2021/07/19 06:08:46;;;;;;;25.90;21.58;;;;;;;26.30;59.96;98716.38;5008995;28;20030;-71
2021/07/19 06:11:11;;;;;;;29.73;20.60;;;;;;;26.25;59.34;98719.81;5009972;28;20030;-71
2021/07/19 06:13:37;;;;;;;43.38;23.48;;;;;;;26.34;59.78;98717.06;5010140;28;20412;-75
2021/07/19 06:16:03;;;;;;;28.98;21.60;;;;;;;26.32;60.14;98713.84;5003514;28;20415;-76
2021/07/19 06:18:28;;;;;;;32.65;21.05;;;;;;;26.38;58.90;98722.69;5010129;28;20042;-76
2021/07/19 06:20:54;;;;;;;26.58;21.55;;;;;;;26.43;58.88;98722.88;4994303;28;20034;-71
2021/07/19 06:23:19;;;;;;;30.63;22.63;;;;;;;26.48;58.99;98722.28;4989665;28;20031;-71
2021/07/19 06:25:45;;;;;;;25.38;22.35;;;;;;;26.38;59.32;98719.81;4996442;28;20046;-72
2021/07/19 06:28:11;;;;;;;34.17;23.08;;;;;;;26.51;59.26;98725.50;5007365;28;20041;-71
2021/07/19 06:30:37;;;;;;;26.85;22.67;;;;;;;26.63;59.03;98716.84;5004870;28;20513;-72
2021/07/19 06:33:03;;;;;;;31.98;25.02;;;;;;;26.74;58.66;98716.47;5001559;28;20033;-71
2021/07/19 06:35:29;;;;;;;36.33;24.35;;;;;;;26.74;58.87;98719.31;5001517;28;20030;-76
2021/07/19 06:37:55;;;;;;;29.15;25.23;;;;;;;26.79;58.71;98715.06;5010134;28;20064;-76
2021/07/19 06:40:21;;;;;;;36.20;26.23;;;;;;;26.87;58.51;98718.50;5010227;28;20076;-72
2021/07/19 06:42:47;;;;;;;34.72;25.83;;;;;;;26.92;58.05;98726.53;4994640;28;20031;-76
2021/07/19 06:45:14;;;;;;;40.67;25.85;;;;;;;26.95;57.47;98719.84;5006335;28;20454;-76
2021/07/19 06:47:40;;;;;;;51.92;28.35;;;;;;;26.97;58.32;98720.19;5010448;28;20443;-70
2021/07/19 06:50:08;;;;;;;35.53;27.42;;;;;;;26.95;57.70;98716.97;5004695;28;20058;-71
2021/07/19 06:52:33;;;;;;;33.08;29.02;;;;;;;27.12;57.77;98716.78;4999615;28;20030;-71
2021/07/19 06:54:59;;;;;;;32.78;26.85;;;;;;;27.22;57.00;98715.56;5002581;28;20045;-71
2021/07/19 06:57:24;;;;;;;44.92;29.30;;;;;;;27.18;58.09;98709.19;5001043;28;20039;-76
2021/07/19 06:59:50;;;;;;;41.65;29.05;;;;;;;27.18;56.93;98714.91;5002781;28;20033;-72
2021/07/19 07:02:15;;;;;;;35.22;29.30;;;;;;;27.22;57.61;98700.44;4999621;28;20038;-71
2021/07/19 07:04:41;;;;;;;37.63;27.75;;;;;;;27.22;56.93;98706.97;5010721;28;20558;-71
2021/07/19 07:07:07;;;;;;;37.40;28.85;;;;;;;27.29;57.15;98709.56;5011770;28;20034;-71
2021/07/19 07:09:33;;;;;;;38.17;30.00;;;;;;;27.29;56.63;98708.75;5012482;28;20106;-76
2021/07/19 07:11:58;;;;;;;36.05;30.13;;;;;;;27.21;57.17;98713.16;5011424;28;20049;-76
2021/07/19 07:14:24;;;;;;;42.75;31.67;;;;;;;27.18;57.01;98712.03;5010139;28;20037;-71
2021/07/19 07:16:50;;;;;;;46.30;30.30;;;;;;;27.30;56.64;98713.22;5011623;28;20136;-76
2021/07/19 07:19:16;;;;;;;32.80;28.25;;;;;;;27.40;56.00;98711.22;5010495;28;20400;-71
2021/07/19 07:21:41;;;;;;;42.92;29.92;;;;;;;27.44;55.87;98715.53;5004140;28;20107;-76
2021/07/19 07:24:07;;;;;;;42.20;29.80;;;;;;;27.39;56.22;98719.03;5010900;28;20080;-71
2021/07/19 07:26:32;;;;;;;42.60;29.25;;;;;;;27.37;56.22;98709.28;5010383;28;20284;-71
2021/07/19 07:28:58;;;;;;;80.75;30.55;;;;;;;27.48;56.50;98701.03;5006469;28;20034;-76
2021/07/19 07:31:27;;;;;;;39.40;29.77;;;;;;;27.57;56.16;98698.25;5011366;28;20045;-76
2021/07/19 07:33:56;;;;;;;37.17;29.10;;;;;;;27.71;56.18;98707.56;5010637;28;20097;-71
2021/07/19 07:36:26;;;;;;;45.90;29.42;;;;;;;27.87;55.58;98703.66;5013402;28;20045;-76
2021/07/19 07:38:52;;;;;;;37.10;28.15;;;;;;;28.07;54.01;98693.81;5007514;28;20084;-72
2021/07/19 07:41:20;;;;;;;42.80;31.17;;;;;;;28.09;54.13;98697.78;5012619;28;20033;-76
2021/07/19 07:43:45;;;;;;;34.80;28.75;;;;;;;28.15;53.78;98692.22;5012423;28;20034;-76
2021/07/19 07:46:12;;;;;;;31.98;27.70;;;;;;;28.19;54.10;98686.34;5012150;28;20038;-71
2021/07/19 07:48:37;;;;;;;32.58;28.08;;;;;;;28.24;53.79;98686.53;5004472;28;20101;-76
2021/07/19 07:51:07;;;;;;;42.45;29.02;;;;;;;28.22;53.82;98685.41;5013205;28;20017;-71
2021/07/19 07:53:33;;;;;;;44.58;28.38;;;;;;;28.04;54.33;98686.94;5013248;28;20404;-71
2021/07/19 07:55:59;;;;;;;39.30;27.48;;;;;;;28.28;53.73;98683.50;5010936;28;20034;-71
2021/07/19 07:58:25;;;;;;;33.58;27.60;;;;;;;28.25;53.50;98684.47;5012683;28;20037;-72
2021/07/19 08:00:51;;;;;;;39.40;30.20;;;;;;;28.26;52.96;98680.31;5012485;28;20025;-76
2021/07/19 08:03:16;;;;;;;39.83;28.20;;;;;;;28.42;53.20;98677.13;5011999;28;20112;-71
2021/07/19 08:05:42;;;;;;;34.75;29.73;;;;;;;28.58;52.40;98683.84;5008466;28;20408;-75
2021/07/19 08:08:07;;;;;;;35.28;27.85;;;;;;;28.78;52.08;98680.50;5010951;28;20472;-76
2021/07/19 08:10:33;;;;;;;39.28;29.05;;;;;;;28.71;53.23;98684.47;5012419;28;20404;-74
2021/07/19 08:12:59;;;;;;;44.92;29.50;;;;;;;28.88;51.28;98684.19;5009298;28;20062;-76
2021/07/19 08:15:25;;;;;;;33.65;28.02;;;;;;;28.72;51.61;98680.34;5008778;28;20026;-76
2021/07/19 08:17:51;;;;;;;41.45;28.63;;;;;;;28.65;52.15;98688.47;5011906;28;20597;-76
2021/07/19 08:20:17;;;;;;;35.33;28.20;;;;;;;28.84;50.92;98672.03;5010646;28;20030;-77
2021/07/19 08:22:47;;;;;;;39.40;29.17;;;;;;;28.97;50.91;98666.94;5008785;28;20049;-76
2021/07/19 08:25:17;;;;;;;41.90;28.60;;;;;;;29.01;50.91;98672.50;5009722;28;20021;-76
2021/07/19 08:27:44;;;;;;;47.33;30.33;;;;;;;29.16;49.61;98674.72;5012191;28;20510;-76
2021/07/19 08:30:11;;;;;;;46.20;29.23;;;;;;;29.03;50.30;98661.31;5011912;28;20557;-72
2021/07/19 08:32:38;;;;;;;49.63;29.05;;;;;;;29.08;50.43;98672.16;5006308;28;20064;-72
2021/07/19 08:35:09;;;;;;;35.22;29.10;;;;;;;29.20;50.49;98670.41;5012108;28;20582;-72
2021/07/19 08:37:36;;;;;;;42.65;30.88;;;;;;;29.13;51.13;98667.84;5012096;28;20041;-72
2021/07/19 08:40:03;;;;;;;60.60;42.38;;;;;;;29.36;49.72;98666.34;5008360;28;20519;-72
2021/07/19 08:42:30;;;;;;;48.63;32.35;;;;;;;29.54;49.86;98662.63;5007342;28;20499;-72
2021/07/19 08:44:55;;;;;;;52.35;33.47;;;;;;;29.56;48.81;98657.19;5009091;28;20030;-72
2021/07/19 08:47:21;;;;;;;43.88;30.85;;;;;;;29.63;48.79;98656.03;4994590;28;20555;-72
2021/07/19 08:49:47;;;;;;;38.47;27.77;;;;;;;29.60;48.19;98656.22;4994248;28;20104;-77
2021/07/19 08:52:16;;;;;;;37.97;28.60;;;;;;;29.73;47.00;98653.09;4993555;28;20042;-73
2021/07/19 08:54:47;;;;;;;33.72;28.83;;;;;;;29.56;48.04;98650.63;4997215;28;20064;-72
2021/07/19 08:57:14;;;;;;;57.47;41.42;;;;;;;29.55;48.77;98646.16;5027144;28;20069;-73
2021/07/19 08:59:40;;;;;;;40.28;30.40;;;;;;;29.47;49.38;98648.59;5006216;28;20034;-77
2021/07/19 09:02:06;;;;;;;44.22;27.55;;;;;;;29.76;47.84;98641.41;5010649;28;20048;-76
2021/07/19 09:04:32;;;;;;;49.75;28.52;;;;;;;29.58;47.98;98648.06;5011861;28;20029;-73
2021/07/19 09:06:58;;;;;;;35.50;25.65;;;;;;;29.69;47.61;98636.00;5012462;28;20096;-73
2021/07/19 09:09:32;;;;;;;42.72;27.27;;;;;;;29.46;48.75;98644.13;5007173;28;20033;-69
2021/07/19 09:11:59;;;;;;;37.22;24.90;;;;;;;29.35;47.30;98626.53;5009853;28;20438;-77
2021/07/19 09:14:25;;;;;;;37.30;27.02;;;;;;;29.62;46.94;98631.38;5007770;28;20516;-79
2021/07/19 09:16:53;;;;;;;33.75;26.73;;;;;;;29.55;47.34;98638.28;5014154;28;20096;-78
2021/07/19 09:19:21;;;;;;;37.42;26.17;;;;;;;29.56;47.80;98625.50;5006808;28;20037;-77
2021/07/19 09:21:49;;;;;;;53.25;27.85;;;;;;;29.59;47.55;98634.47;5005012;28;20096;-74
2021/07/19 09:24:21;;;;;;;30.88;21.98;;;;;;;29.72;45.96;98626.38;5008251;28;20411;-75
2021/07/19 09:26:49;;;;;;;33.42;19.95;;;;;;;29.68;44.77;98632.31;5005207;28;20464;-77
2021/07/19 09:29:17;;;;;;;25.08;18.52;;;;;;;29.98;43.77;98618.03;5009811;28;20037;-73
2021/07/19 09:31:51;;;;;;;24.27;17.42;;;;;;;30.06;43.26;98621.41;5009888;28;20030;-73
2021/07/19 09:34:23;;;;;;;32.65;16.58;;;;;;;30.03;42.22;98618.69;5010357;28;20042;-73
2021/07/19 09:36:54;;;;;;;22.50;17.70;;;;;;;30.11;42.78;98611.31;4999754;28;20064;-73
2021/07/19 09:39:20;;;;;;;28.13;19.85;;;;;;;30.19;43.17;98614.59;5004461;28;20035;-73
2021/07/19 09:41:46;;;;;;;31.30;19.13;;;;;;;30.18;44.05;98618.78;4994477;28;20045;-73
2021/07/19 09:44:12;;;;;;;28.42;19.73;;;;;;;30.31;43.71;98622.19;4991427;28;20061;-76
2021/07/19 09:46:40;;;;;;;35.97;18.35;;;;;;;30.43;43.98;98610.88;4991364;28;20488;-76
2021/07/19 09:49:05;;;;;;;26.10;18.98;;;;;;;30.50;42.94;98616.25;4991846;28;20117;-77
2021/07/19 09:51:35;;;;;;;29.63;17.80;;;;;;;30.74;42.50;98610.47;5007893;28;20030;-76
2021/07/19 09:54:11;;;;;;;25.00;17.15;;;;;;;30.74;42.85;98615.44;5007870;28;20030;-73
2021/07/19 09:56:38;;;;;;;19.83;14.77;;;;;;;30.91;40.96;98605.00;5009533;28;20458;-73
2021/07/19 09:59:11;;;;;;;17.73;15.35;;;;;;;31.10;40.84;98604.78;5011786;28;20030;-75
2021/07/19 10:01:41;;;;;;;21.15;15.23;;;;;;;31.17;41.54;98607.28;5010782;28;20030;-75
2021/07/19 10:04:17;;;;;;;;;;;;;;;31.24;40.20;98604.00;5007332;28;20061;-72
2021/07/19 10:06:46;;;;;;;26.80;14.82;;;;;;;31.26;40.55;98609.28;5008301;28;19921;-83
2021/07/19 10:09:13;;;;;;;33.87;15.93;;;;;;;31.14;41.22;98595.94;5009656;28;20458;-76
2021/07/19 10:11:45;;;;;;;25.98;15.50;;;;;;;31.10;41.69;98599.81;5008261;28;20045;-74
2021/07/19 10:14:10;;;;;;;21.38;14.43;;;;;;;31.21;40.97;98596.31;5009958;28;20037;-74
2021/07/19 10:16:37;;;;;;;20.80;13.75;;;;;;;31.29;41.06;98593.84;5002058;28;20057;-74
2021/07/19 10:19:05;;;;;;;20.58;14.25;;;;;;;31.34;41.46;98596.06;5001964;28;20112;-77
2021/07/19 10:21:33;;;;;;;18.70;13.35;;;;;;;31.41;40.17;98596.91;5005990;28;20029;-73
2021/07/19 10:24:01;;;;;;;18.30;13.45;;;;;;;31.33;40.67;98594.47;5005496;28;20431;-76
2021/07/19 10:26:28;;;;;;;20.75;13.30;;;;;;;31.48;40.79;98591.53;5007223;28;20300;-76
2021/07/19 10:28:54;;;;;;;26.85;15.30;;;;;;;31.75;39.89;98583.78;5010548;28;20033;-76
2021/07/19 10:31:20;;;;;;;19.27;13.02;;;;;;;31.84;39.72;98587.84;5009347;28;20488;-76
2021/07/19 10:33:48;;;;;;;24.05;15.27;;;;;;;31.91;39.60;98581.66;5021981;28;20030;-77
2021/07/19 10:36:21;;;;;;;15.13;13.05;;;;;;;32.05;39.43;98580.78;5008512;28;20037;-73
2021/07/19 10:38:48;;;;;;;26.45;14.70;;;;;;;32.18;38.96;98568.88;5009021;28;20044;-73
2021/07/19 10:41:13;;;;;;;20.42;15.73;;;;;;;32.04;40.26;98569.75;5009330;28;20602;-75
2021/07/19 10:43:39;;;;;;;24.52;16.15;;;;;;;31.93;40.19;98567.50;5010524;28;20034;-71
2021/07/19 10:46:10;;;;;;;32.20;16.65;;;;;;;31.87;40.03;98572.41;5004691;28;20479;-73
2021/07/19 10:48:36;;;;;;;30.23;18.60;;;;;;;31.79;40.47;98566.25;5009632;28;20029;-68
2021/07/19 10:51:14;;;;;;;24.92;17.38;;;;;;;32.03;39.17;98563.16;5025218;28;20117;-69
2021/07/19 10:53:40;;;;;;;26.23;18.85;;;;;;;32.19;39.56;98561.78;5008462;28;20057;-70
2021/07/19 10:56:06;;;;;;;21.83;17.17;;;;;;;32.40;38.60;98556.00;5008013;28;20495;-73
2021/07/19 10:58:43;;;;;;;25.70;18.95;;;;;;;32.35;39.57;98557.53;5009768;28;20033;-70
2021/07/19 11:01:29;;;;;;;27.45;18.40;;;;;;;32.35;39.30;98548.84;5003364;28;20145;-71
2021/07/19 11:03:57;;;;;;;24.70;18.17;;;;;;;32.25;39.46;98538.72;5024709;28;20462;-73
2021/07/19 11:06:47;;;;;;;21.33;17.40;;;;;;;32.49;38.85;98540.56;5005948;28;20050;-72
2021/07/19 11:09:12;;;;;;;;;;;;;;;32.59;38.91;98535.41;5009655;28;20474;-72
2021/07/19 11:11:40;;;;;;;31.17;19.45;;;;;;;32.59;38.91;98536.22;5006466;28;20060;-72
2021/07/19 11:14:11;;;;;;;24.38;19.25;;;;;;;32.72;38.64;98535.00;5009256;28;20088;-73
2021/07/19 11:16:42;;;;;;;25.95;21.13;;;;;;;32.74;37.55;98533.19;5009658;28;20053;-72
2021/07/19 11:19:09;;;;;;;27.05;21.92;;;;;;;32.78;37.56;98527.16;5009051;28;20112;-75